Time;durP1;ratioP1;P1;durP2;ratioP2;P2;SDS_P1;SDS_P2;PMS_P1;PMS_P2;Temp;Humidity;BMP_temperature;BMP_pressure;BME280_temperature;BME280_humidity;BME280_pressure;Samples;Min_cycle;Max_cycle;Signal;HPM_P1;HPM_P2
2023/10/04 00:01:06;;;;;;;3.00;1.60;;;;;;;;;;5051420;28;20048;-81
2023/10/04 00:03:32;;;;;;;2.67;1.50;;;;;;;;;;5053194;28;20053;-82
2023/10/04 00:05:59;;;;;;;3.78;1.52;;;;;;;;;;5052159;28;20028;-82
2023/10/04 00:08:25;;;;;;;4.38;1.60;;;;;;;;;;5053653;28;20052;-80
2023/10/04 00:10:51;;;;;;;3.42;1.70;;;;;;;;;;5053062;28;20072;-82
2023/10/04 00:13:16;;;;;;;2.63;1.40;;;;;;;;;;5053190;28;20124;-81
2023/10/04 00:15:42;;;;;;;3.05;1.70;;;;;;;;;;5052839;28;20037;-81
2023/10/04 00:18:08;;;;;;;2.13;1.35;;;;;;;;;;5053278;28;20043;-86
2023/10/04 00:20:34;;;;;;;4.60;1.73;;;;;;;;;;5051173;28;20043;-82
2023/10/04 00:23:02;;;;;;;4.10;1.50;;;;;;;;;;5052982;28;20041;-82
2023/10/04 00:25:29;;;;;;;3.00;1.40;;;;;;;;;;5051969;28;20033;-84
2023/10/04 00:27:58;;;;;;;4.13;1.70;;;;;;;;;;5052554;28;20033;-81
2023/10/04 00:30:29;;;;;;;3.33;1.50;;;;;;;;;;5051834;28;20087;-83
2023/10/04 00:32:55;;;;;;;4.93;1.58;;;;;;;;;;5051322;28;20529;-82
2023/10/04 00:35:21;;;;;;;6.35;1.80;;;;;;;;;;5052017;28;20021;-81
2023/10/04 00:38:00;;;;;;;5.28;1.65;;;;;;;;;;5053140;28;20036;-80
2023/10/04 00:40:31;;;;;;;2.78;1.60;;;;;;;;;;5052636;28;20124;-80
2023/10/04 00:42:59;;;;;;;2.70;1.52;;;;;;;;;;5052135;28;20033;-84
2023/10/04 00:45:25;;;;;;;5.50;1.63;;;;;;;;;;5052372;28;20044;-82
2023/10/04 00:47:57;;;;;;;2.80;1.50;;;;;;;;;;5051269;28;20032;-84
2023/10/04 00:50:26;;;;;;;2.95;1.50;;;;;;;;;;5040437;28;20060;-81
2023/10/04 00:53:08;;;;;;;2.90;1.55;;;;;;;;;;5018087;28;20411;-82
2023/10/04 00:55:34;;;;;;;3.80;1.45;;;;;;;;;;5050185;28;20033;-81
2023/10/04 00:58:05;;;;;;;4.43;1.73;;;;;;;;;;5052533;28;20033;-82
2023/10/04 01:00:31;;;;;;;3.17;1.70;;;;;;;;;;5050956;28;20033;-83
2023/10/04 01:02:57;;;;;;;6.13;1.65;;;;;;;;;;5050953;28;20479;-83
2023/10/04 01:05:26;;;;;;;3.83;1.70;;;;;;;;;;5050959;28;20037;-82
2023/10/04 01:07:56;;;;;;;4.13;1.80;;;;;;;;;;5046864;28;20063;-80
2023/10/04 01:10:26;;;;;;;5.95;1.80;;;;;;;;;;5048823;28;20043;-80
2023/10/04 01:12:52;;;;;;;5.60;1.80;;;;;;;;;;5051190;28;20398;-81
2023/10/04 01:17:49;;;;;;;2.75;1.40;;;;;;;;;;5054335;28;20722;-83
2023/10/04 01:20:16;;;;;;;2.97;1.38;;;;;;;;;;5060958;28;20021;-83
2023/10/04 01:22:41;;;;;;;2.90;1.52;;;;;;;;;;5052925;28;20148;-83
2023/10/04 01:25:11;;;;;;;3.72;1.58;;;;;;;;;;5056535;28;20056;-81
2023/10/04 01:27:38;;;;;;;3.13;1.60;;;;;;;;;;5057491;28;20513;-80
2023/10/04 01:30:11;;;;;;;3.08;1.52;;;;;;;;;;5057087;28;20035;-84
2023/10/04 01:32:37;;;;;;;3.30;1.58;;;;;;;;;;5058187;28;20029;-81
2023/10/04 01:35:05;;;;;;;4.85;1.60;;;;;;;;;;5039870;28;20482;-83
2023/10/04 01:37:32;;;;;;;3.20;1.70;;;;;;;;;;5057062;28;20056;-83
2023/10/04 01:39:58;;;;;;;3.88;1.50;;;;;;;;;;5056957;28;20032;-82
2023/10/04 01:42:25;;;;;;;2.72;1.20;;;;;;;;;;5058249;28;20056;-81
2023/10/04 01:44:51;;;;;;;2.88;1.40;;;;;;;;;;5056866;28;20033;-82
2023/10/04 01:47:19;;;;;;;2.03;1.25;;;;;;;;;;5057691;28;20094;-80
2023/10/04 01:49:46;;;;;;;3.78;1.40;;;;;;;;;;5057015;28;20032;-82
2023/10/04 01:52:13;;;;;;;2.08;1.33;;;;;;;;;;5054006;28;20049;-81
2023/10/04 01:54:39;;;;;;;2.35;1.35;;;;;;;;;;5056012;28;20033;-82
2023/10/04 01:57:05;;;;;;;3.55;1.13;;;;;;;;;;5056249;28;20039;-82
2023/10/04 01:59:31;;;;;;;3.05;1.40;;;;;;;;;;5039930;28;20029;-82
2023/10/04 02:01:57;;;;;;;3.15;1.45;;;;;;;;;;5038847;28;20171;-83
2023/10/04 02:04:24;;;;;;;3.60;1.40;;;;;;;;;;5038373;28;20037;-83
2023/10/04 02:06:50;;;;;;;3.88;1.60;;;;;;;;;;5056779;28;20040;-81
2023/10/04 02:09:18;;;;;;;2.17;1.40;;;;;;;;;;5055954;28;20061;-81
2023/10/04 02:11:44;;;;;;;3.20;1.50;;;;;;;;;;5054856;28;20044;-81
2023/10/04 02:14:11;;;;;;;5.45;1.30;;;;;;;;;;5055254;28;20037;-82
2023/10/04 02:16:37;;;;;;;2.20;1.20;;;;;;;;;;5030328;28;20414;-81
2023/10/04 02:19:03;;;;;;;3.28;1.40;;;;;;;;;;5054321;28;20048;-81
2023/10/04 02:21:28;;;;;;;4.38;1.52;;;;;;;;;;5033180;22;20493;-85
2023/10/04 02:23:54;;;;;;;2.55;1.13;;;;;;;;;;4983800;28;20027;-84
2023/10/04 02:26:22;;;;;;;2.13;1.30;;;;;;;;;;4988027;28;20037;-84
2023/10/04 02:28:54;;;;;;;2.83;1.40;;;;;;;;;;4992413;28;20038;-83
2023/10/04 02:31:20;;;;;;;2.72;1.50;;;;;;;;;;4984017;28;20047;-83
2023/10/04 02:33:47;;;;;;;3.75;1.38;;;;;;;;;;4984015;28;20045;-83
2023/10/04 02:36:12;;;;;;;2.20;1.25;;;;;;;;;;5009883;28;20081;-83
2023/10/04 02:38:38;;;;;;;3.35;1.20;;;;;;;;;;4989041;28;20046;-82
2023/10/04 02:41:10;;;;;;;3.30;1.23;;;;;;;;;;4982369;28;20035;-84
2023/10/04 02:43:40;;;;;;;2.00;1.20;;;;;;;;;;4985867;28;20054;-84
2023/10/04 02:46:06;;;;;;;2.78;1.20;;;;;;;;;;4990627;28;20038;-83
2023/10/04 02:48:34;;;;;;;2.92;1.10;;;;;;;;;;4985156;28;20089;-83
2023/10/04 02:51:01;;;;;;;2.35;1.10;;;;;;;;;;4983726;28;20092;-82
2023/10/04 02:53:27;;;;;;;2.88;1.30;;;;;;;;;;5008115;28;20034;-82
2023/10/04 02:55:54;;;;;;;1.75;1.15;;;;;;;;;;5002859;28;20117;-83
2023/10/04 02:58:21;;;;;;;2.35;1.33;;;;;;;;;;4980698;28;20039;-83
2023/10/04 03:00:49;;;;;;;3.10;1.30;;;;;;;;;;4992463;28;20030;-82
2023/10/04 03:03:24;;;;;;;2.70;1.33;;;;;;;;;;4999857;28;20038;-83
2023/10/04 03:05:54;;;;;;;3.47;1.52;;;;;;;;;;4996887;28;20031;-84
2023/10/04 03:08:20;;;;;;;4.78;1.20;;;;;;;;;;4987270;28;20093;-83
2023/10/04 03:10:50;;;;;;;1.85;0.95;;;;;;;;;;5005405;28;20089;-83
2023/10/04 03:13:22;;;;;;;2.13;1.20;;;;;;;;;;4984257;28;20041;-82
2023/10/04 03:15:50;;;;;;;1.85;1.13;;;;;;;;;;4982262;28;20031;-83
2023/10/04 03:18:20;;;;;;;1.83;1.10;;;;;;;;;;4992452;28;20107;-83
2023/10/04 03:21:10;;;;;;;3.67;1.45;;;;;;;;;;5000284;28;20505;-83
2023/10/04 03:23:40;;;;;;;2.17;1.13;;;;;;;;;;4978263;28;20089;-82
2023/10/04 03:26:12;;;;;;;2.13;1.10;;;;;;;;;;4991781;28;20030;-83
2023/10/04 03:28:38;;;;;;;3.97;1.30;;;;;;;;;;5003410;28;20030;-82
2023/10/04 03:31:14;;;;;;;5.00;1.35;;;;;;;;;;4981289;28;20421;-82
2023/10/04 03:33:43;;;;;;;3.33;1.70;;;;;;;;;;4985064;28;20396;-83
2023/10/04 03:36:15;;;;;;;3.53;1.58;;;;;;;;;;5004790;28;20038;-83
2023/10/04 03:38:42;;;;;;;3.08;1.55;;;;;;;;;;4983277;28;20586;-83
2023/10/04 03:41:08;;;;;;;4.35;1.40;;;;;;;;;;4983923;28;20504;-82
2023/10/04 03:43:36;;;;;;;2.72;1.33;;;;;;;;;;5007255;28;20014;-83
2023/10/04 03:46:24;;;;;;;8.55;1.50;;;;;;;;;;4997104;28;20198;-83
2023/10/04 03:48:53;;;;;;;1.80;1.15;;;;;;;;;;4995113;28;20031;-83
2023/10/04 03:51:21;;;;;;;2.00;1.10;;;;;;;;;;4971914;28;20110;-83
2023/10/04 03:53:47;;;;;;;1.33;0.85;;;;;;;;;;4967322;28;20062;-83
2023/10/04 03:56:16;;;;;;;2.00;1.13;;;;;;;;;;4962059;28;20110;-82
2023/10/04 03:58:42;;;;;;;2.60;1.15;;;;;;;;;;4970534;28;20046;-82
2023/10/04 04:01:10;;;;;;;4.22;1.30;;;;;;;;;;5003173;28;20094;-83
2023/10/04 04:03:36;;;;;;;2.63;1.38;;;;;;;;;;4996306;28;20568;-82
2023/10/04 04:06:02;;;;;;;5.25;1.10;;;;;;;;;;5000482;28;20034;-83
2023/10/04 04:08:27;;;;;;;2.10;1.40;;;;;;;;;;5007391;28;20038;-83
2023/10/04 04:10:53;;;;;;;5.88;1.48;;;;;;;;;;4999962;28;20038;-84
2023/10/04 04:13:19;;;;;;;6.65;1.40;;;;;;;;;;4980876;28;20524;-84
2023/10/04 04:15:45;;;;;;;2.83;1.50;;;;;;;;;;5004257;28;20042;-82
2023/10/04 04:18:13;;;;;;;3.67;1.60;;;;;;;;;;4987133;28;20034;-83
2023/10/04 04:20:43;;;;;;;2.40;1.20;;;;;;;;;;4978464;28;20042;-82
2023/10/04 04:23:10;;;;;;;2.45;1.52;;;;;;;;;;4982350;28;20030;-82
2023/10/04 04:25:38;;;;;;;3.63;1.60;;;;;;;;;;5005393;28;20041;-81
2023/10/04 04:28:05;;;;;;;3.42;1.40;;;;;;;;;;4984337;28;20085;-82
2023/10/04 04:30:35;;;;;;;4.60;1.60;;;;;;;;;;4979603;28;20040;-83
2023/10/04 04:33:04;;;;;;;3.47;1.30;;;;;;;;;;4991321;28;20034;-83
2023/10/04 04:40:44;;;;;;;2.95;1.48;;;;;;;;;;4987445;28;20448;-82
2023/10/04 04:45:56;;;;;;;4.95;1.55;;;;;;;;;;4980165;28;20507;-82
2023/10/04 04:48:31;;;;;;;2.85;1.48;;;;;;;;;;4985482;28;20034;-83
2023/10/04 04:51:08;;;;;;;2.80;1.58;;;;;;;;;;4983089;28;20125;-83
2023/10/04 04:53:34;;;;;;;3.30;1.50;;;;;;;;;;4979255;28;20046;-81
2023/10/04 04:56:03;;;;;;;2.63;1.55;;;;;;;;;;4978618;28;20108;-83
2023/10/04 04:58:31;;;;;;;3.70;1.50;;;;;;;;;;4971281;28;20562;-81
2023/10/04 05:01:00;;;;;;;4.00;1.60;;;;;;;;;;4982793;28;20034;-82
2023/10/04 05:03:27;;;;;;;2.83;1.30;;;;;;;;;;4992385;28;20039;-83
2023/10/04 05:05:55;;;;;;;3.63;1.70;;;;;;;;;;4987760;28;20034;-83
2023/10/04 05:08:22;;;;;;;2.42;1.50;;;;;;;;;;5002297;28;20174;-82
2023/10/04 05:10:51;;;;;;;4.60;1.70;;;;;;;;;;4993626;28;20038;-83
2023/10/04 05:13:21;;;;;;;5.20;1.50;;;;;;;;;;5000324;28;20101;-83
2023/10/04 05:15:49;;;;;;;2.45;1.50;;;;;;;;;;4989162;28;20038;-83
2023/10/04 05:18:16;;;;;;;5.88;1.40;;;;;;;;;;4983053;28;20034;-82
2023/10/04 05:21:05;;;;;;;2.08;1.40;;;;;;;;;;4992133;28;20026;-82
2023/10/04 05:23:31;;;;;;;2.63;1.30;;;;;;;;;;4970698;28;20497;-83
2023/10/04 05:25:56;;;;;;;3.53;1.40;;;;;;;;;;4981433;28;20026;-82
2023/10/04 05:28:22;;;;;;;2.60;1.33;;;;;;;;;;4978724;28;20472;-80
2023/10/04 05:30:48;;;;;;;3.47;1.30;;;;;;;;;;4987606;28;20026;-81
2023/10/04 05:33:16;;;;;;;3.05;1.45;;;;;;;;;;4986252;28;20064;-83
2023/10/04 05:35:47;;;;;;;2.90;1.58;;;;;;;;;;4994821;28;20050;-82
2023/10/04 05:38:14;;;;;;;2.17;1.40;;;;;;;;;;4977283;28;20076;-82
2023/10/04 05:40:44;;;;;;;1.80;1.20;;;;;;;;;;4988107;28;20030;-84
2023/10/04 05:43:12;;;;;;;4.93;1.40;;;;;;;;;;4989454;28;20066;-84
2023/10/04 05:45:37;;;;;;;2.33;1.42;;;;;;;;;;4976687;28;20034;-81
2023/10/04 05:48:05;;;;;;;3.63;1.50;;;;;;;;;;4990412;28;20057;-82
2023/10/04 05:50:32;;;;;;;2.47;1.40;;;;;;;;;;4984706;28;20045;-82
2023/10/04 05:53:00;;;;;;;4.28;1.23;;;;;;;;;;4975237;28;20138;-82
2023/10/04 05:55:26;;;;;;;2.35;1.27;;;;;;;;;;4982590;28;20077;-82
2023/10/04 05:57:52;;;;;;;3.83;1.55;;;;;;;;;;4996822;28;20455;-83
2023/10/04 06:00:27;;;;;;;4.38;1.60;;;;;;;;;;4980526;28;20035;-82
2023/10/04 06:02:59;;;;;;;2.58;1.50;;;;;;;;;;4977400;28;20110;-83
2023/10/04 06:05:31;;;;;;;3.85;1.70;;;;;;;;;;4988485;28;20070;-83
2023/10/04 06:07:57;;;;;;;2.72;1.60;;;;;;;;;;4980158;28;20094;-83
2023/10/04 06:10:24;;;;;;;4.22;1.60;;;;;;;;;;4978316;28;20051;-82
2023/10/04 06:12:52;;;;;;;3.08;1.70;;;;;;;;;;4991579;28;20049;-82
2023/10/04 06:15:18;;;;;;;6.80;1.65;;;;;;;;;;4993111;28;20027;-82
2023/10/04 06:17:45;;;;;;;3.47;1.48;;;;;;;;;;4984717;28;20039;-83
2023/10/04 06:22:57;;;;;;;2.28;1.40;;;;;;;;;;4992523;28;20110;-82
2023/10/04 06:25:24;;;;;;;5.82;1.45;;;;;;;;;;4987969;28;20039;-82
2023/10/04 06:27:51;;;;;;;2.97;1.60;;;;;;;;;;4986250;28;20035;-83
2023/10/04 06:30:21;;;;;;;4.60;1.60;;;;;;;;;;4997761;28;20041;-82
2023/10/04 06:33:00;;;;;;;3.53;1.58;;;;;;;;;;4990518;28;20053;-83
2023/10/04 06:35:27;;;;;;;3.92;1.67;;;;;;;;;;4982500;28;20050;-83
2023/10/04 06:37:54;;;;;;;4.82;1.90;;;;;;;;;;4992997;28;20505;-84
2023/10/04 06:40:21;;;;;;;4.53;1.70;;;;;;;;;;4989476;28;20039;-82
2023/10/04 06:42:48;;;;;;;4.43;1.80;;;;;;;;;;4983435;28;20043;-82
2023/10/04 06:45:16;;;;;;;3.45;1.80;;;;;;;;;;4986489;28;20037;-82
2023/10/04 06:47:44;;;;;;;2.38;1.30;;;;;;;;;;4992412;28;20030;-82
2023/10/04 06:50:22;;;;;;;4.28;1.52;;;;;;;;;;4986802;28;20042;-81
2023/10/04 06:52:49;;;;;;;5.68;1.50;;;;;;;;;;4978775;28;20031;-83
2023/10/04 06:55:17;;;;;;;3.72;1.48;;;;;;;;;;4994969;28;20057;-79
2023/10/04 06:57:44;;;;;;;3.25;1.48;;;;;;;;;;4987244;28;20041;-82
2023/10/04 07:00:13;;;;;;;3.35;1.83;;;;;;;;;;4981320;28;20046;-82
2023/10/04 07:02:51;;;;;;;4.03;1.80;;;;;;;;;;4992146;28;20519;-84
2023/10/04 07:05:19;;;;;;;3.33;1.70;;;;;;;;;;4987670;28;20059;-83
2023/10/04 07:07:51;;;;;;;3.20;1.55;;;;;;;;;;4981301;28;20583;-82
2023/10/04 07:10:20;;;;;;;5.63;1.98;;;;;;;;;;4985269;28;20050;-81
2023/10/04 07:12:51;;;;;;;4.75;1.60;;;;;;;;;;4991412;28;20038;-80
2023/10/04 07:15:18;;;;;;;3.83;1.40;;;;;;;;;;4985885;28;20031;-82
2023/10/04 07:17:44;;;;;;;3.55;1.60;;;;;;;;;;4978589;28;20424;-82
2023/10/04 07:20:15;;;;;;;4.32;1.50;;;;;;;;;;4984030;28;20058;-83
2023/10/04 07:22:58;;;;;;;4.93;1.85;;;;;;;;;;4982581;28;20110;-82
2023/10/04 07:25:27;;;;;;;3.17;1.52;;;;;;;;;;4980640;28;20042;-81
2023/10/04 07:27:55;;;;;;;4.45;1.70;;;;;;;;;;5008481;28;20051;-82
2023/10/04 07:30:21;;;;;;;9.20;2.00;;;;;;;;;;4990186;28;20042;-80
2023/10/04 07:32:48;;;;;;;3.17;1.50;;;;;;;;;;4982558;28;20039;-80
2023/10/04 07:35:20;;;;;;;2.72;1.40;;;;;;;;;;4984557;28;20049;-82
2023/10/04 07:37:46;;;;;;;3.13;1.50;;;;;;;;;;4990506;28;20188;-80
2023/10/04 07:40:14;;;;;;;4.13;1.50;;;;;;;;;;4985805;28;20070;-81
2023/10/04 07:42:41;;;;;;;3.65;1.55;;;;;;;;;;4977812;28;20038;-82
2023/10/04 07:45:08;;;;;;;3.25;1.50;;;;;;;;;;4993162;28;20034;-82
2023/10/04 07:47:37;;;;;;;3.85;1.75;;;;;;;;;;4988301;28;20054;-82
2023/10/04 07:50:05;;;;;;;3.20;1.60;;;;;;;;;;4981797;28;20043;-80
2023/10/04 07:52:31;;;;;;;3.35;1.52;;;;;;;;;;4989551;28;20058;-81
2023/10/04 07:54:59;;;;;;;4.10;1.70;;;;;;;;;;4989225;28;20489;-82
2023/10/04 07:57:28;;;;;;;2.92;1.55;;;;;;;;;;4984896;28;20045;-83
2023/10/04 07:59:54;;;;;;;2.65;1.40;;;;;;;;;;4979813;28;20077;-81
2023/10/04 08:02:20;;;;;;;3.53;1.55;;;;;;;;;;4991877;28;20412;-81
2023/10/04 08:04:48;;;;;;;4.35;1.70;;;;;;;;;;4987070;28;20081;-81
2023/10/04 08:07:15;;;;;;;3.78;1.55;;;;;;;;;;4980867;28;20042;-81
2023/10/04 08:09:41;;;;;;;3.15;1.58;;;;;;;;;;4992022;28;20064;-82
2023/10/04 08:12:09;;;;;;;3.17;1.42;;;;;;;;;;4988408;28;20572;-83
2023/10/04 08:14:35;;;;;;;2.90;1.58;;;;;;;;;;4982512;28;20390;-82
2023/10/04 08:17:01;;;;;;;3.08;1.50;;;;;;;;;;4986765;28;20080;-83
2023/10/04 08:19:26;;;;;;;3.33;1.77;;;;;;;;;;4990012;28;20046;-82
2023/10/04 08:21:52;;;;;;;4.32;1.80;;;;;;;;;;4983233;28;20061;-83
2023/10/04 08:24:20;;;;;;;2.63;1.40;;;;;;;;;;4979262;28;20031;-82
2023/10/04 08:26:48;;;;;;;2.97;1.60;;;;;;;;;;4992655;28;20066;-83
2023/10/04 08:29:14;;;;;;;2.63;1.55;;;;;;;;;;4982959;28;20049;-83
2023/10/04 08:31:40;;;;;;;4.25;1.80;;;;;;;;;;4981233;28;20034;-82
2023/10/04 08:34:05;;;;;;;2.75;1.42;;;;;;;;;;4987242;28;20048;-82
2023/10/04 08:36:33;;;;;;;4.43;1.60;;;;;;;;;;4989257;28;20034;-83
2023/10/04 08:39:00;;;;;;;3.35;1.67;;;;;;;;;;4983077;28;20130;-82
2023/10/04 08:41:27;;;;;;;3.45;1.75;;;;;;;;;;4982816;28;20411;-83
2023/10/04 08:43:52;;;;;;;3.08;1.70;;;;;;;;;;4986506;28;20049;-82
2023/10/04 08:46:21;;;;;;;3.85;1.55;;;;;;;;;;4986213;28;20038;-82
2023/10/04 08:48:53;;;;;;;3.65;1.60;;;;;;;;;;4995534;28;20129;-83
2023/10/04 08:51:38;;;;;;;3.88;1.60;;;;;;;;;;4992283;28;20061;-84
2023/10/04 08:54:13;;;;;;;3.35;1.70;;;;;;;;;;4993224;28;20044;-84
2023/10/04 08:56:48;;;;;;;4.75;1.75;;;;;;;;;;4984271;28;20114;-84
2023/10/04 08:59:13;;;;;;;3.17;1.80;;;;;;;;;;4992962;28;20042;-83
2023/10/04 09:01:40;;;;;;;5.05;1.60;;;;;;;;;;4993506;28;20118;-85
2023/10/04 09:04:09;;;;;;;5.30;1.80;;;;;;;;;;4988507;28;20046;-85
2023/10/04 09:06:36;;;;;;;3.33;1.67;;;;;;;;;;4989557;28;20022;-85
2023/10/04 09:09:05;;;;;;;4.80;1.77;;;;;;;;;;5011637;28;20069;-84
2023/10/04 09:11:32;;;;;;;4.50;1.80;;;;;;;;;;4987945;28;20034;-84
2023/10/04 09:13:57;;;;;;;4.20;1.60;;;;;;;;;;4984463;28;20118;-84
2023/10/04 09:16:28;;;;;;;3.53;1.65;;;;;;;;;;4996074;28;20057;-84
2023/10/04 09:19:14;;;;;;;5.80;1.65;;;;;;;;;;4994356;28;20050;-84
2023/10/04 09:21:41;;;;;;;3.13;1.52;;;;;;;;;;4987142;28;20074;-84
2023/10/04 09:24:11;;;;;;;3.20;1.90;;;;;;;;;;4993851;28;20034;-85
2023/10/04 09:26:39;;;;;;;5.32;1.83;;;;;;;;;;4996387;28;20058;-84
2023/10/04 09:29:05;;;;;;;5.18;1.65;;;;;;;;;;5001861;28;20030;-84
2023/10/04 09:31:44;;;;;;;3.58;1.83;;;;;;;;;;4989936;28;20030;-85
2023/10/04 09:34:13;;;;;;;4.35;1.80;;;;;;;;;;4997982;28;20038;-81
2023/10/04 09:36:40;;;;;;;3.78;1.67;;;;;;;;;;4991600;28;20034;-84
2023/10/04 09:39:23;;;;;;;4.43;1.70;;;;;;;;;;4985598;28;20804;-84
2023/10/04 09:41:50;;;;;;;4.07;1.70;;;;;;;;;;4996940;28;20496;-85
2023/10/04 09:44:29;;;;;;;3.47;1.70;;;;;;;;;;4993642;28;20497;-85
2023/10/04 09:47:02;;;;;;;2.55;1.42;;;;;;;;;;4988680;28;20074;-85
2023/10/04 09:49:33;;;;;;;2.95;1.70;;;;;;;;;;4999701;28;20039;-84
2023/10/04 09:52:03;;;;;;;4.85;1.75;;;;;;;;;;4992773;28;20499;-84
2023/10/04 09:54:29;;;;;;;3.15;1.75;;;;;;;;;;4991290;28;20027;-85
2023/10/04 09:56:56;;;;;;;3.58;1.70;;;;;;;;;;4994691;28;20428;-85
2023/10/04 09:59:23;;;;;;;3.88;1.85;;;;;;;;;;5012997;28;20039;-85
2023/10/04 10:01:56;;;;;;;6.35;1.90;;;;;;;;;;4992042;28;20065;-84
2023/10/04 10:04:25;;;;;;;3.40;1.73;;;;;;;;;;4989118;28;20062;-85
2023/10/04 10:07:11;;;;;;;3.03;1.60;;;;;;;;;;4994931;28;20101;-86
2023/10/04 10:09:57;;;;;;;4.18;1.88;;;;;;;;;;4993633;28;20058;-85
2023/10/04 10:12:23;;;;;;;3.25;1.70;;;;;;;;;;4983948;28;20035;-83
2023/10/04 10:14:49;;;;;;;4.03;1.67;;;;;;;;;;4998275;28;20058;-85
2023/10/04 10:17:17;;;;;;;4.78;1.88;;;;;;;;;;5011271;28;20050;-85
2023/10/04 10:19:46;;;;;;;3.58;1.60;;;;;;;;;;5004856;28;20042;-84
2023/10/04 10:22:15;;;;;;;4.13;1.60;;;;;;;;;;4996237;28;20038;-86
2023/10/04 10:24:48;;;;;;;4.68;2.00;;;;;;;;;;4999124;28;20034;-85
2023/10/04 10:27:17;;;;;;;4.60;1.90;;;;;;;;;;5007396;28;20043;-84
2023/10/04 10:29:43;;;;;;;3.58;1.83;;;;;;;;;;4986002;28;20452;-85
2023/10/04 10:32:35;;;;;;;4.18;1.70;;;;;;;;;;4999735;28;20555;-84
2023/10/04 10:35:04;;;;;;;3.85;1.80;;;;;;;;;;4990799;28;20043;-84
2023/10/04 10:37:35;;;;;;;3.58;1.70;;;;;;;;;;4986869;28;20066;-84
2023/10/04 10:40:07;;;;;;;4.55;1.85;;;;;;;;;;4979954;28;20026;-84
2023/10/04 10:43:06;;;;;;;3.22;1.80;;;;;;;;;;4990261;28;20039;-84
2023/10/04 10:45:31;;;;;;;3.55;1.70;;;;;;;;;;4985560;28;20045;-85
2023/10/04 10:47:58;;;;;;;5.18;1.90;;;;;;;;;;4995634;28;20109;-84
2023/10/04 10:50:50;;;;;;;5.05;1.70;;;;;;;;;;4995304;28;20046;-84
2023/10/04 10:53:15;;;;;;;4.15;1.92;;;;;;;;;;4985945;28;20069;-84
2023/10/04 10:55:41;;;;;;;3.58;1.52;;;;;;;;;;5008684;28;20496;-85
2023/10/04 10:58:07;;;;;;;3.83;1.70;;;;;;;;;;4996384;28;20151;-84
2023/10/04 11:00:35;;;;;;;4.70;1.77;;;;;;;;;;4989641;28;20310;-83
2023/10/04 11:03:04;;;;;;;3.92;1.80;;;;;;;;;;4986776;28;20042;-85
2023/10/04 11:05:30;;;;;;;3.95;1.65;;;;;;;;;;4991344;28;20026;-84
2023/10/04 11:07:56;;;;;;;3.22;1.70;;;;;;;;;;4989976;28;20026;-86
2023/10/04 11:10:23;;;;;;;6.28;1.60;;;;;;;;;;4985850;28;20041;-85
2023/10/04 11:13:03;;;;;;;4.28;1.80;;;;;;;;;;4992225;28;20039;-85
2023/10/04 11:15:28;;;;;;;5.70;1.83;;;;;;;;;;4990599;28;20038;-83
2023/10/04 11:17:57;;;;;;;3.85;1.60;;;;;;;;;;5002233;28;20042;-84
2023/10/04 11:20:22;;;;;;;3.17;1.60;;;;;;;;;;4990831;28;20046;-85
2023/10/04 11:22:49;;;;;;;3.20;1.63;;;;;;;;;;5009485;28;20046;-84
2023/10/04 11:25:15;;;;;;;3.90;1.90;;;;;;;;;;4990493;28;20035;-84
2023/10/04 11:27:50;;;;;;;4.95;1.85;;;;;;;;;;4987918;28;20033;-84
2023/10/04 11:30:23;;;;;;;3.13;1.85;;;;;;;;;;4998272;28;20035;-84
2023/10/04 11:32:50;;;;;;;;;;;;;;;;;;4998568;28;20117;-80
2023/10/04 11:35:18;;;;;;;7.53;1.58;;;;;;;;;;4980423;28;19910;-83
2023/10/04 11:37:50;;;;;;;3.90;1.55;;;;;;;;;;4980468;28;20132;-83
2023/10/04 11:40:19;;;;;;;4.35;1.73;;;;;;;;;;4992511;28;20038;-82
2023/10/04 11:42:45;;;;;;;4.38;1.50;;;;;;;;;;4981513;28;20026;-82
2023/10/04 11:45:17;;;;;;;6.20;1.70;;;;;;;;;;4980693;28;20097;-82
2023/10/04 11:47:43;;;;;;;2.47;1.70;;;;;;;;;;4988737;28;20038;-82
2023/10/04 11:50:10;;;;;;;3.38;1.80;;;;;;;;;;4989822;28;20061;-81
2023/10/04 11:52:36;;;;;;;3.88;1.73;;;;;;;;;;4983988;28;20092;-82
2023/10/04 11:55:02;;;;;;;4.75;1.90;;;;;;;;;;4980923;28;20058;-83
2023/10/04 11:57:37;;;;;;;3.47;1.95;;;;;;;;;;4980090;28;20061;-83
2023/10/04 12:00:19;;;;;;;2.20;1.40;;;;;;;;;;4989980;28;20035;-83
2023/10/04 12:02:45;;;;;;;3.53;1.77;;;;;;;;;;4984148;28;20038;-81
2023/10/04 12:05:11;;;;;;;2.67;1.73;;;;;;;;;;4979918;28;20023;-83
2023/10/04 12:07:37;;;;;;;4.05;1.70;;;;;;;;;;4977810;28;20092;-82
2023/10/04 12:10:03;;;;;;;2.90;1.60;;;;;;;;;;4990269;28;20038;-81
2023/10/04 12:12:28;;;;;;;2.88;1.67;;;;;;;;;;4998957;28;20127;-82
2023/10/04 12:14:54;;;;;;;4.20;1.98;;;;;;;;;;4993850;28;20039;-82
2023/10/04 12:17:19;;;;;;;3.70;1.73;;;;;;;;;;4981946;28;20046;-81
2023/10/04 12:19:45;;;;;;;2.63;1.67;;;;;;;;;;4990507;28;20089;-83
2023/10/04 12:22:11;;;;;;;3.90;2.05;;;;;;;;;;5000109;28;20034;-83
2023/10/04 12:24:41;;;;;;;4.40;1.90;;;;;;;;;;4978824;28;20085;-82
2023/10/04 12:27:10;;;;;;;4.18;1.90;;;;;;;;;;4978476;28;20038;-82
2023/10/04 12:29:36;;;;;;;4.75;1.60;;;;;;;;;;4989271;28;20569;-81
2023/10/04 12:32:02;;;;;;;4.53;1.95;;;;;;;;;;4980935;28;20391;-82
2023/10/04 12:34:29;;;;;;;3.38;1.80;;;;;;;;;;4981639;28;20772;-81
2023/10/04 12:36:55;;;;;;;4.28;2.00;;;;;;;;;;4977662;28;20113;-82
2023/10/04 12:39:21;;;;;;;4.75;1.90;;;;;;;;;;4991514;28;20053;-83
2023/10/04 12:41:50;;;;;;;6.75;1.83;;;;;;;;;;4986320;28;20098;-82
2023/10/04 12:44:18;;;;;;;3.75;1.80;;;;;;;;;;4994287;28;20041;-82
2023/10/04 12:46:44;;;;;;;3.78;1.58;;;;;;;;;;4977545;28;20141;-82
2023/10/04 12:49:09;;;;;;;3.00;1.80;;;;;;;;;;4991254;28;20037;-82
2023/10/04 12:51:35;;;;;;;2.63;1.50;;;;;;;;;;4999820;28;20038;-81
2023/10/04 12:54:01;;;;;;;2.92;1.70;;;;;;;;;;4980974;28;20038;-82
2023/10/04 12:56:26;;;;;;;3.47;1.70;;;;;;;;;;4977932;28;20085;-82
2023/10/04 12:58:53;;;;;;;2.85;1.60;;;;;;;;;;4990542;28;20085;-81
2023/10/04 13:01:19;;;;;;;4.05;1.70;;;;;;;;;;4980601;28;20388;-83
2023/10/04 13:03:47;;;;;;;4.28;1.70;;;;;;;;;;4981362;28;20035;-83
2023/10/04 13:06:15;;;;;;;4.40;1.77;;;;;;;;;;4976283;28;20031;-81
2023/10/04 13:08:44;;;;;;;3.70;1.90;;;;;;;;;;4989419;28;20464;-81
2023/10/04 13:11:11;;;;;;;4.38;1.80;;;;;;;;;;4985207;28;20038;-81
2023/10/04 13:13:40;;;;;;;6.95;1.98;;;;;;;;;;4978859;28;20037;-81
2023/10/04 13:16:07;;;;;;;3.92;1.67;;;;;;;;;;4976454;28;20031;-81
2023/10/04 13:18:36;;;;;;;4.70;1.80;;;;;;;;;;4989800;28;20469;-81
2023/10/04 13:21:02;;;;;;;2.95;1.80;;;;;;;;;;4988431;28;20096;-82
2023/10/04 13:23:28;;;;;;;3.70;1.70;;;;;;;;;;4996910;28;20034;-84
2023/10/04 13:25:55;;;;;;;6.50;2.38;;;;;;;;;;4980896;28;20030;-83
2023/10/04 13:28:23;;;;;;;3.85;2.17;;;;;;;;;;4994571;28;20476;-82
2023/10/04 13:30:49;;;;;;;5.45;2.13;;;;;;;;;;4971690;28;20563;-81
2023/10/04 13:33:16;;;;;;;4.28;2.10;;;;;;;;;;4985516;28;20063;-81
2023/10/04 13:35:41;;;;;;;4.75;1.85;;;;;;;;;;4980294;28;20110;-81
2023/10/04 13:38:07;;;;;;;6.00;2.38;;;;;;;;;;5007527;28;20121;-81
2023/10/04 13:40:35;;;;;;;8.82;2.10;;;;;;;;;;4989605;28;20034;-82
2023/10/04 13:43:07;;;;;;;3.95;1.85;;;;;;;;;;4984564;28;20046;-83
2023/10/04 13:45:34;;;;;;;4.18;2.10;;;;;;;;;;4978666;28;20073;-83
2023/10/04 13:48:06;;;;;;;1.70;1.20;;;;;;;;;;4974538;28;20061;-82
2023/10/04 13:50:32;;;;;;;3.05;1.75;;;;;;;;;;4968262;28;20727;-82
2023/10/04 13:52:58;;;;;;;4.43;2.00;;;;;;;;;;4963544;28;20073;-82
2023/10/04 13:55:25;;;;;;;3.30;1.85;;;;;;;;;;4958509;28;20090;-83
2023/10/04 13:57:55;;;;;;;5.07;1.60;;;;;;;;;;4989545;28;20448;-85
2023/10/04 14:00:24;;;;;;;3.92;1.58;;;;;;;;;;4989061;28;20034;-83
2023/10/04 14:02:50;;;;;;;6.20;2.10;;;;;;;;;;4978985;28;20042;-84
2023/10/04 14:05:19;;;;;;;3.97;1.75;;;;;;;;;;4979913;28;20042;-82
2023/10/04 14:07:50;;;;;;;3.17;1.83;;;;;;;;;;4972528;28;20045;-82
2023/10/04 14:10:21;;;;;;;6.55;1.90;;;;;;;;;;4970639;28;20481;-81
2023/10/04 14:12:48;;;;;;;3.83;1.98;;;;;;;;;;4964502;28;20067;-83
2023/10/04 14:15:13;;;;;;;5.22;1.90;;;;;;;;;;4960137;28;20662;-81
2023/10/04 14:17:39;;;;;;;2.72;1.70;;;;;;;;;;5008834;28;20030;-82
2023/10/04 14:20:05;;;;;;;4.75;1.77;;;;;;;;;;4987804;28;20041;-82
2023/10/04 14:22:31;;;;;;;4.80;2.00;;;;;;;;;;4984088;28;20034;-82
2023/10/04 14:24:59;;;;;;;3.67;1.85;;;;;;;;;;4979863;28;20038;-82
2023/10/04 14:27:26;;;;;;;3.65;2.00;;;;;;;;;;4974375;28;20043;-83
2023/10/04 14:29:52;;;;;;;4.20;1.92;;;;;;;;;;4968654;28;20027;-83
2023/10/04 14:32:17;;;;;;;4.38;1.98;;;;;;;;;;4964479;28;20848;-82
2023/10/04 14:34:43;;;;;;;3.15;1.90;;;;;;;;;;4960110;28;20393;-81
2023/10/04 14:37:08;;;;;;;3.72;1.90;;;;;;;;;;4988310;28;20027;-81
2023/10/04 14:39:36;;;;;;;8.70;1.98;;;;;;;;;;4988281;28;20053;-81
2023/10/04 14:42:04;;;;;;;4.57;2.08;;;;;;;;;;4990533;28;20061;-83
2023/10/04 14:44:30;;;;;;;5.28;1.80;;;;;;;;;;4992751;28;20026;-83
2023/10/04 14:46:56;;;;;;;5.10;1.80;;;;;;;;;;5003944;28;20031;-84
2023/10/04 14:49:21;;;;;;;5.20;1.80;;;;;;;;;;4996548;28;20042;-84
2023/10/04 14:51:46;;;;;;;3.70;1.83;;;;;;;;;;4990847;28;20042;-81
2023/10/04 14:54:13;;;;;;;4.82;1.83;;;;;;;;;;4999070;28;20338;-81
2023/10/04 14:56:39;;;;;;;3.33;1.90;;;;;;;;;;5012297;28;20109;-83
2023/10/04 14:59:05;;;;;;;5.82;2.03;;;;;;;;;;4993192;28;20043;-81
2023/10/04 15:01:31;;;;;;;5.00;2.10;;;;;;;;;;5005135;28;20058;-83
2023/10/04 15:03:57;;;;;;;4.05;1.85;;;;;;;;;;5002456;28;20357;-83